首页
METAR-TAF:

METAR-TAF

机场 :

土庫曼納巴德, 土库曼斯坦

纬度: 39-05-00N, 经度: 063-36-48E, 海拔: 192米

当前天气观测

该预报发布于18分钟前的16:00 UTC
风速6节,风向南转西南
温度 5°C
湿度 93%
气压 1021 hPa
能见度10公里或以上
1500米以下无云,无积雨云

METAR: UTAV 121600Z 20006KT CAVOK 05/04 Q1021 R31/CLRD70 NOSIG

时间: 21:18 (16:18 UTC)

预报

该预报发布于5小时和48分钟前的10:30 UTC
预报有效从12日的 12点(UTC)到 13日的 12点(UTC)
风速14节,风向西
能見度: 2000
多云层高于1000英尺
轻雾
短暂存在
从 12日的 13点(UTC)到 12日的 15点(UTC)
风速12节,风向西转西南
能見度: 1200
阴天层高于300英尺
轻雾
短暂存在
从 12日的 15点(UTC)到 12日的 20点(UTC)
风速4节,风向多变
能見度: 0200
层高于200英尺
短暂存在
从 12日的 20点(UTC)到 13日的 05点(UTC)
能見度: 0100
层高于100英尺
雾, 小毛毛雨

TAF: UTAV 121030Z 1212/1312 28014KT 2000 BR BKN010 TEMPO 1213/1215 24012KT 1200 BR OVC003 TEMPO 1215/1220 VRB04KT 0200 FG VV002 TEMPO 1220/1305 0100 FG -DZ VV001

超过4000个机场的气象观测和天气预报(METAR&TAF报告)。

可查询的气象台以黄色和红色小点在地图上表示。

将鼠标移到小点上方,可查看气象台名称。

然后点击查看天气观测和预报。

如需切换地图:点击带黑十字的绿色按钮放大地图;点击带横线的绿色按钮缩小地图;或者点击绿色箭头查看邻近地区的地图。


METAR-TAF: